Marsteller, Pennsylvania
Current Conditions -  °F | °C
As of 1:15 AM on Thursday 23 Oct 2014 (Local Time) from KIDI Reporting Station
Overcast Overcast  
Wind Chill: 43°   Ceiling: 1500
Heat Index: 46°   Visibility: 10mi
Dew Point: 41°   Wind: 7mph
Humidity: 81%   Direction: 360°N
Pressure: 30.13"   Gusts: 13mph
Location:  40.65°N, 78.81°W
Report Text: KIDI 230515Z AUTO 36006G11KT 10SM OVC015 08/05 A3013 RMK A01
Loading
Personal Weather Stations






























Interactive Weather Map
Tropical Storm Tracking
New forecast layout! Learn more

10-Day Weather Forecast

Advertisements
Track Severe Weather on mobile